createdAt,value
2018-06-17T00:01:38.178Z,2.17
2018-06-17T00:04:06.398Z,1.90
2018-06-17T00:06:34.601Z,1.47
2018-06-17T00:09:02.861Z,1.80
2018-06-17T00:11:31.026Z,1.17
2018-06-17T00:13:59.236Z,1.63
2018-06-17T00:16:27.471Z,1.60
2018-06-17T00:18:55.692Z,1.77
2018-06-17T00:21:23.892Z,1.67
2018-06-17T00:23:52.089Z,2.17
2018-06-17T00:26:20.285Z,2.17
2018-06-17T00:28:48.496Z,1.83
2018-06-17T00:31:16.700Z,1.63
2018-06-17T00:33:44.915Z,1.87
2018-06-17T00:36:13.127Z,1.87
2018-06-17T00:38:41.352Z,2.20
2018-06-17T00:41:09.315Z,1.50
2018-06-17T00:43:37.515Z,1.37
2018-06-17T00:46:05.783Z,1.87
2018-06-17T00:48:33.972Z,2.30
2018-06-17T00:51:02.168Z,1.80
2018-06-17T00:53:30.382Z,2.07
2018-06-17T00:55:58.588Z,2.30
2018-06-17T00:58:26.790Z,2.10
2018-06-17T01:00:54.997Z,1.60
2018-06-17T01:03:23.184Z,2.10
2018-06-17T01:05:51.380Z,1.87
2018-06-17T01:08:19.590Z,1.73
2018-06-17T01:10:47.821Z,1.80
2018-06-17T01:13:16.008Z,1.87
2018-06-17T01:15:44.209Z,1.93
2018-06-17T01:18:12.425Z,1.50
2018-06-17T01:20:40.613Z,2.10
2018-06-17T01:23:08.824Z,1.63
2018-06-17T01:25:37.013Z,1.90
2018-06-17T01:28:05.238Z,1.33
2018-06-17T01:30:33.447Z,1.57
2018-06-17T01:33:01.658Z,1.70
2018-06-17T01:35:29.884Z,1.37
2018-06-17T01:37:58.092Z,2.33
2018-06-17T01:40:26.297Z,1.73
2018-06-17T01:42:54.493Z,2.10
2018-06-17T01:45:22.697Z,1.50
2018-06-17T01:47:51.208Z,1.80
2018-06-17T01:50:19.477Z,1.33
2018-06-17T01:52:47.668Z,1.70
2018-06-17T01:55:15.865Z,1.43
2018-06-17T01:57:44.043Z,1.20
2018-06-17T02:00:12.766Z,1.43
2018-06-17T02:02:41.449Z,1.03
2018-06-17T02:05:14.964Z,1.33
2018-06-17T02:07:48.618Z,1.23
2018-06-17T02:11:24.708Z,1.13
2018-06-17T02:13:54.361Z,1.23
2018-06-17T02:16:22.570Z,1.00
2018-06-17T02:18:50.762Z,1.53
2018-06-17T02:21:18.993Z,1.50
2018-06-17T02:23:47.192Z,1.40
2018-06-17T02:26:15.380Z,1.57
2018-06-17T02:28:43.568Z,1.60
2018-06-17T02:31:11.802Z,1.80
2018-06-17T02:33:39.997Z,1.40
2018-06-17T02:36:08.207Z,1.80
2018-06-17T02:38:36.422Z,2.03
2018-06-17T02:41:04.640Z,1.37
2018-06-17T02:43:39.404Z,1.23
2018-06-17T02:46:12.946Z,1.50
2018-06-17T02:48:46.709Z,1.40
2018-06-17T02:51:20.323Z,1.40
2018-06-17T02:53:53.728Z,1.30
2018-06-17T02:56:21.923Z,1.20
2018-06-17T02:58:50.123Z,1.20
2018-06-17T03:01:18.335Z,1.30
2018-06-17T03:03:46.579Z,1.30
2018-06-17T03:06:14.713Z,1.60
2018-06-17T03:08:42.926Z,1.10
2018-06-17T03:11:11.142Z,1.20
2018-06-17T03:13:39.387Z,0.83
2018-06-17T03:16:07.585Z,0.80
2018-06-17T03:18:35.803Z,1.30
2018-06-17T03:21:04.138Z,1.27
2018-06-17T03:23:32.305Z,0.93
2018-06-17T03:26:05.858Z,1.20
2018-06-17T03:28:39.574Z,1.17
2018-06-17T03:31:12.810Z,0.90
2018-06-17T03:33:46.522Z,1.00
2018-06-17T03:36:15.720Z,1.40
2018-06-17T03:38:43.904Z,1.23
2018-06-17T03:41:12.695Z,0.87
2018-06-17T03:43:40.881Z,0.90
2018-06-17T03:46:09.353Z,1.00
2018-06-17T03:48:37.521Z,1.20
2018-06-17T03:51:05.715Z,1.00
2018-06-17T03:53:33.914Z,0.90
2018-06-17T03:56:02.090Z,1.10
2018-06-17T03:58:30.269Z,1.10
2018-06-17T04:00:58.452Z,1.17
2018-06-17T04:03:26.633Z,1.00
2018-06-17T04:05:55.028Z,1.00
2018-06-17T04:08:23.222Z,1.33
2018-06-17T04:10:51.408Z,1.00
2018-06-17T04:13:19.609Z,1.20
2018-06-17T04:15:47.785Z,1.00
2018-06-17T04:18:15.965Z,0.73
2018-06-17T04:20:44.160Z,1.00
2018-06-17T04:23:12.361Z,1.10
2018-06-17T04:25:40.646Z,1.20
2018-06-17T04:28:08.732Z,0.97
2018-06-17T04:30:36.962Z,1.37
2018-06-17T04:33:05.124Z,1.07
2018-06-17T04:35:33.312Z,0.80
2018-06-17T04:38:01.517Z,1.00
2018-06-17T04:40:29.681Z,0.93
2018-06-17T04:42:57.896Z,0.80
2018-06-17T04:45:26.076Z,0.90
2018-06-17T04:47:54.260Z,0.70
2018-06-17T04:50:22.467Z,1.47
2018-06-17T04:52:50.875Z,1.17
2018-06-17T04:55:19.205Z,1.30
2018-06-17T04:57:47.377Z,1.20
2018-06-17T05:00:15.541Z,1.30
2018-06-17T05:02:43.721Z,1.13
2018-06-17T05:05:12.000Z,1.00
2018-06-17T05:07:40.188Z,0.87
2018-06-17T05:10:08.439Z,0.90
2018-06-17T05:12:36.685Z,1.33
2018-06-17T05:15:05.109Z,1.00
2018-06-17T05:17:33.334Z,0.90
2018-06-17T05:20:01.496Z,0.90
2018-06-17T05:22:29.678Z,0.80
2018-06-17T05:24:57.850Z,1.13
2018-06-17T05:27:26.053Z,0.93
2018-06-17T05:29:54.217Z,1.10
2018-06-17T05:32:28.902Z,0.90
2018-06-17T05:34:57.086Z,1.03
2018-06-17T05:37:25.261Z,1.07
2018-06-17T05:39:53.429Z,0.90
2018-06-17T05:42:21.614Z,1.20
2018-06-17T05:44:49.780Z,1.60
2018-06-17T05:47:17.961Z,1.23
2018-06-17T05:49:46.149Z,1.17
2018-06-17T05:52:14.321Z,1.50
2018-06-17T05:54:42.550Z,0.77
2018-06-17T05:57:10.777Z,1.00
2018-06-17T05:59:38.959Z,1.27
2018-06-17T06:02:07.180Z,1.17
2018-06-17T06:04:35.378Z,1.10
2018-06-17T06:07:03.886Z,1.00
2018-06-17T06:09:32.059Z,1.20
2018-06-17T06:12:00.251Z,0.90
2018-06-17T06:14:28.408Z,1.07
2018-06-17T06:16:56.888Z,1.40
2018-06-17T06:19:25.005Z,1.00
2018-06-17T06:21:53.213Z,0.70
2018-06-17T06:24:21.372Z,1.30
2018-06-17T06:26:49.595Z,0.87
2018-06-17T06:29:22.010Z,0.70
2018-06-17T06:31:50.213Z,0.70
2018-06-17T06:34:18.381Z,0.80
2018-06-17T06:36:46.585Z,0.80
2018-06-17T06:39:14.780Z,0.70
2018-06-17T06:41:42.967Z,0.67
2018-06-17T06:44:11.142Z,1.23
2018-06-17T06:46:39.381Z,0.70
2018-06-17T06:49:07.553Z,0.90
2018-06-17T06:51:36.173Z,0.70
2018-06-17T06:54:04.405Z,0.90
2018-06-17T06:56:32.726Z,0.87
2018-06-17T06:59:00.929Z,1.30
2018-06-17T07:01:40.537Z,1.33
2018-06-17T07:04:20.010Z,1.60
2018-06-17T07:06:53.516Z,1.03
2018-06-17T07:09:33.612Z,0.90
2018-06-17T07:12:01.846Z,0.93
2018-06-17T07:14:30.128Z,1.20
2018-06-17T07:17:09.626Z,1.17
2018-06-17T07:19:37.817Z,1.90
2018-06-17T07:22:06.017Z,1.03
2018-06-17T07:24:34.194Z,1.03
2018-06-17T07:27:13.782Z,1.27
2018-06-17T07:29:43.728Z,0.80
2018-06-17T07:32:11.910Z,1.07
2018-06-17T07:34:40.119Z,1.60
2018-06-17T07:37:08.310Z,1.43
2018-06-17T07:39:48.565Z,1.50
2018-06-17T07:42:16.764Z,0.90
2018-06-17T07:44:44.934Z,1.20
2018-06-17T07:47:13.121Z,0.90
2018-06-17T07:49:52.654Z,0.90
2018-06-17T07:52:33.534Z,1.10
2018-06-17T07:55:01.733Z,1.13
2018-06-17T07:57:31.068Z,1.47
2018-06-17T07:59:59.256Z,0.93
2018-06-17T08:02:27.441Z,1.07
2018-06-17T08:04:55.652Z,1.30
2018-06-17T08:07:23.840Z,0.90
2018-06-17T08:09:52.098Z,1.10
2018-06-17T08:12:20.312Z,1.20
2018-06-17T08:14:48.540Z,0.90
2018-06-17T08:17:16.746Z,0.87
2018-06-17T08:19:44.931Z,1.17
2018-06-17T08:22:13.101Z,1.00
2018-06-17T08:24:41.351Z,0.93
2018-06-17T08:27:10.497Z,0.90
2018-06-17T08:29:38.702Z,1.07
2018-06-17T08:32:06.869Z,1.40
2018-06-17T08:34:35.070Z,1.03
2018-06-17T08:37:03.244Z,1.20
2018-06-17T08:39:31.434Z,1.10
2018-06-17T08:41:59.641Z,1.23
2018-06-17T08:44:27.895Z,1.30
2018-06-17T08:46:56.088Z,1.30
2018-06-17T08:49:24.305Z,1.00
2018-06-17T08:51:52.496Z,1.40
2018-06-17T08:54:20.705Z,1.27
2018-06-17T08:56:48.873Z,1.40
2018-06-17T08:59:17.118Z,1.07
2018-06-17T09:01:45.329Z,1.00
2018-06-17T09:04:13.499Z,1.63
2018-06-17T09:06:41.713Z,1.43
2018-06-17T09:09:11.161Z,1.20
2018-06-17T09:11:39.535Z,1.07
2018-06-17T09:14:07.735Z,1.03
2018-06-17T09:16:36.121Z,1.47
2018-06-17T09:19:04.303Z,1.27
2018-06-17T09:21:32.494Z,0.97
2018-06-17T09:24:00.720Z,0.70
2018-06-17T09:26:28.916Z,1.07
2018-06-17T09:28:57.108Z,1.00
2018-06-17T09:31:25.503Z,1.13
2018-06-17T09:33:54.083Z,0.77
2018-06-17T09:36:22.262Z,0.87
2018-06-17T09:38:50.520Z,1.00
2018-06-17T09:41:18.760Z,1.80
2018-06-17T09:43:46.960Z,1.17
2018-06-17T09:46:15.159Z,1.77
2018-06-17T09:48:43.312Z,1.80
2018-06-17T09:51:11.500Z,1.40
2018-06-17T09:53:39.684Z,1.10
2018-06-17T09:56:07.901Z,1.37
2018-06-17T09:58:36.140Z,1.47
2018-06-17T10:01:04.338Z,0.87
2018-06-17T10:03:32.534Z,1.10
2018-06-17T10:06:00.737Z,1.10
2018-06-17T10:08:28.944Z,1.30
2018-06-17T10:11:03.477Z,1.40
2018-06-17T10:13:32.930Z,1.23
2018-06-17T10:16:01.185Z,1.07
2018-06-17T10:18:29.833Z,0.93
2018-06-17T10:20:58.198Z,0.77
2018-06-17T10:23:26.443Z,1.13
2018-06-17T10:25:54.649Z,0.90
2018-06-17T10:28:24.140Z,1.10
2018-06-17T10:30:53.035Z,0.80
2018-06-17T10:33:21.462Z,1.40
2018-06-17T10:35:49.705Z,1.10
2018-06-17T10:38:17.920Z,1.20
2018-06-17T10:40:46.239Z,1.90
2018-06-17T10:43:15.587Z,1.67
2018-06-17T10:45:43.859Z,1.40
2018-06-17T10:48:12.406Z,1.00
2018-06-17T10:50:40.728Z,0.83
2018-06-17T10:53:09.079Z,1.57
2018-06-17T10:55:37.371Z,0.93
2018-06-17T10:58:05.517Z,0.93
2018-06-17T11:00:33.725Z,1.60
2018-06-17T11:03:01.914Z,1.43
2018-06-17T11:05:30.341Z,1.63
2018-06-17T11:07:58.471Z,1.33
2018-06-17T11:10:26.641Z,1.00
2018-06-17T11:12:54.898Z,1.00
2018-06-17T11:15:23.058Z,1.10
2018-06-17T11:17:51.268Z,1.20
2018-06-17T11:20:19.473Z,1.13
2018-06-17T11:22:47.656Z,1.10
2018-06-17T11:25:15.847Z,1.67
2018-06-17T11:27:44.029Z,1.50
2018-06-17T11:30:12.221Z,1.63
2018-06-17T11:32:40.397Z,1.60
2018-06-17T11:35:08.546Z,1.23
2018-06-17T11:37:37.110Z,1.33
2018-06-17T11:40:05.282Z,1.17
2018-06-17T11:42:33.453Z,1.20
2018-06-17T11:45:09.157Z,1.23
2018-06-17T11:47:37.351Z,1.03
2018-06-17T11:50:05.527Z,0.90
2018-06-17T11:52:33.688Z,0.70
2018-06-17T11:55:01.881Z,1.20
2018-06-17T11:57:30.061Z,1.50
2018-06-17T11:59:58.237Z,1.10
2018-06-17T12:02:34.865Z,1.10
2018-06-17T12:05:17.093Z,1.20
2018-06-17T12:07:57.910Z,1.30
2018-06-17T12:10:26.093Z,1.10
2018-06-17T12:12:54.272Z,1.20
2018-06-17T12:15:22.446Z,0.83
2018-06-17T12:17:50.650Z,1.00
2018-06-17T12:20:18.829Z,1.00
2018-06-17T12:22:47.018Z,0.90
2018-06-17T12:25:15.189Z,0.90
2018-06-17T12:27:43.370Z,0.80
2018-06-17T12:30:11.554Z,1.27
2018-06-17T12:32:39.730Z,1.00
2018-06-17T12:35:07.914Z,0.90
2018-06-17T12:37:36.092Z,1.00
2018-06-17T12:40:04.294Z,1.03
2018-06-17T12:42:32.514Z,0.80
2018-06-17T12:45:00.692Z,1.10
2018-06-17T12:47:28.873Z,0.87
2018-06-17T12:49:57.086Z,0.93
2018-06-17T12:52:25.248Z,0.80
2018-06-17T12:54:53.435Z,0.77
2018-06-17T12:57:21.768Z,0.90
2018-06-17T12:59:49.954Z,0.90
2018-06-17T13:02:18.147Z,1.00
2018-06-17T13:04:46.312Z,0.80
2018-06-17T13:07:14.489Z,0.87
2018-06-17T13:09:42.670Z,0.70
2018-06-17T13:12:10.869Z,1.00
2018-06-17T13:14:39.064Z,0.73
2018-06-17T13:17:07.228Z,1.10
2018-06-17T13:19:35.415Z,1.13
2018-06-17T13:22:03.596Z,1.00
2018-06-17T13:24:31.776Z,1.10
2018-06-17T13:26:59.960Z,0.80
2018-06-17T13:29:28.180Z,1.00
2018-06-17T13:31:56.096Z,1.33
2018-06-17T13:34:24.280Z,0.90
2018-06-17T13:36:52.457Z,1.10
2018-06-17T13:39:20.637Z,0.90
2018-06-17T13:41:48.806Z,0.90
2018-06-17T13:44:16.991Z,1.07
2018-06-17T13:46:45.161Z,0.97
2018-06-17T13:49:13.361Z,1.00
2018-06-17T13:51:41.562Z,1.17
2018-06-17T13:54:09.896Z,0.90
2018-06-17T13:56:38.058Z,0.80
2018-06-17T13:59:06.240Z,0.80
2018-06-17T14:01:34.441Z,0.70
2018-06-17T14:04:02.624Z,0.90
2018-06-17T14:06:30.776Z,0.83
2018-06-17T14:08:58.989Z,0.93
2018-06-17T14:11:27.169Z,0.77
2018-06-17T14:13:55.367Z,0.80
2018-06-17T14:16:23.561Z,0.70
2018-06-17T14:18:51.738Z,1.10
2018-06-17T14:21:19.909Z,0.80
2018-06-17T14:23:48.094Z,0.80
2018-06-17T14:26:16.277Z,0.93
2018-06-17T14:28:44.458Z,0.73
2018-06-17T14:31:12.711Z,0.70
2018-06-17T14:33:40.863Z,0.70
2018-06-17T14:36:09.077Z,0.67
2018-06-17T14:38:37.275Z,0.80
2018-06-17T14:41:10.821Z,0.80
2018-06-17T14:43:44.481Z,0.70
2018-06-17T14:46:18.353Z,0.70
2018-06-17T14:48:52.074Z,0.80
2018-06-17T14:51:25.613Z,1.20
2018-06-17T14:53:53.815Z,1.00
2018-06-17T14:56:22.057Z,0.93
2018-06-17T14:58:50.264Z,1.00
2018-06-17T15:01:18.485Z,1.03
2018-06-17T15:03:47.947Z,0.80
2018-06-17T15:06:16.118Z,0.80
2018-06-17T15:08:45.005Z,0.70
2018-06-17T15:11:13.337Z,0.90
2018-06-17T15:13:41.556Z,0.70
2018-06-17T15:16:09.735Z,1.00
2018-06-17T15:18:37.945Z,0.90
2018-06-17T15:21:06.121Z,1.00
2018-06-17T15:23:34.324Z,0.80
2018-06-17T15:26:02.557Z,0.73
2018-06-17T15:28:30.786Z,0.70
2018-06-17T15:31:04.393Z,0.60
2018-06-17T15:33:37.887Z,0.80
2018-06-17T15:36:11.593Z,1.40
2018-06-17T15:38:45.133Z,1.23
2018-06-17T15:41:18.805Z,1.13
2018-06-17T15:43:46.995Z,1.00
2018-06-17T15:46:15.181Z,1.40
2018-06-17T15:48:43.349Z,0.97
2018-06-17T15:51:11.580Z,1.17
2018-06-17T15:53:39.761Z,1.10
2018-06-17T15:56:07.949Z,1.17
2018-06-17T15:58:36.133Z,0.87
2018-06-17T16:01:04.337Z,1.90
2018-06-17T16:03:32.497Z,1.33
2018-06-17T16:06:00.690Z,1.03
2018-06-17T16:08:28.895Z,1.10
2018-06-17T16:10:57.179Z,1.10
2018-06-17T16:13:30.931Z,0.97
2018-06-17T16:16:04.528Z,1.00
2018-06-17T16:18:41.027Z,0.77
2018-06-17T16:21:09.582Z,0.90
2018-06-17T16:23:37.758Z,0.87
2018-06-17T16:26:05.949Z,1.20
2018-06-17T16:28:34.134Z,0.90
2018-06-17T16:31:02.321Z,0.80
2018-06-17T16:33:30.488Z,1.00
2018-06-17T16:35:58.675Z,0.70
2018-06-17T16:38:26.849Z,0.77
2018-06-17T16:40:55.033Z,0.73
2018-06-17T16:43:23.227Z,0.80
2018-06-17T16:45:51.436Z,1.00
2018-06-17T16:48:19.654Z,0.90
2018-06-17T16:50:53.139Z,1.00
2018-06-17T16:53:26.666Z,0.70
2018-06-17T16:56:00.314Z,1.00
2018-06-17T16:58:33.757Z,1.00
2018-06-17T17:01:01.945Z,0.90
2018-06-17T17:03:30.132Z,1.20
2018-06-17T17:05:58.315Z,1.03
2018-06-17T17:08:26.501Z,0.90
2018-06-17T17:10:54.701Z,1.43
2018-06-17T17:13:22.906Z,0.93
2018-06-17T17:15:51.103Z,0.97
2018-06-17T17:18:19.644Z,0.70
2018-06-17T17:20:47.817Z,0.80
2018-06-17T17:23:16.017Z,0.80
2018-06-17T17:25:45.239Z,0.70
2018-06-17T17:28:13.438Z,0.73
2018-06-17T17:30:45.529Z,0.80
2018-06-17T17:33:19.041Z,0.83
2018-06-17T17:35:52.553Z,0.90
2018-06-17T17:38:27.237Z,0.70
2018-06-17T17:40:58.537Z,0.90
2018-06-17T17:43:26.922Z,0.70
2018-06-17T17:46:00.575Z,0.53
2018-06-17T17:48:28.914Z,0.80
2018-06-17T17:50:57.084Z,0.90
2018-06-17T17:53:25.272Z,1.50
2018-06-17T17:55:53.450Z,0.80
2018-06-17T17:58:22.747Z,0.70
2018-06-17T18:00:50.928Z,0.90
2018-06-17T18:03:19.161Z,0.63
2018-06-17T18:05:47.346Z,1.20
2018-06-17T18:08:15.530Z,0.73
2018-06-17T18:10:43.761Z,1.10
2018-06-17T18:13:12.018Z,0.90
2018-06-17T18:15:40.143Z,0.60
2018-06-17T18:18:08.532Z,0.63
2018-06-17T18:20:36.769Z,0.90
2018-06-17T18:23:04.984Z,0.80
2018-06-17T18:25:38.749Z,0.97
2018-06-17T18:28:12.893Z,1.20
2018-06-17T18:30:46.529Z,0.60
2018-06-17T18:33:20.211Z,0.80
2018-06-17T18:35:53.981Z,0.90
2018-06-17T18:38:22.194Z,0.77
2018-06-17T18:40:50.397Z,0.80
2018-06-17T18:43:18.604Z,0.63
2018-06-17T18:45:47.134Z,0.63
2018-06-17T18:48:15.348Z,0.70
2018-06-17T18:50:43.552Z,0.90
2018-06-17T18:53:11.760Z,0.87
2018-06-17T18:55:39.940Z,0.80
2018-06-17T18:58:08.158Z,1.00
2018-06-17T19:00:36.357Z,0.70
2018-06-17T19:03:04.656Z,0.80
2018-06-17T19:05:32.861Z,1.00
2018-06-17T19:08:01.061Z,0.70
2018-06-17T19:10:34.769Z,0.70
2018-06-17T19:13:08.317Z,0.77
2018-06-17T19:15:41.986Z,0.80
2018-06-17T19:18:12.398Z,1.17
2018-06-17T19:20:41.003Z,0.90
2018-06-17T19:23:09.218Z,0.80
2018-06-17T19:25:37.489Z,0.93
2018-06-17T19:28:05.712Z,0.70
2018-06-17T19:30:33.900Z,0.80
2018-06-17T19:33:02.097Z,0.90
2018-06-17T19:35:30.274Z,0.90
2018-06-17T19:37:58.491Z,1.00
2018-06-17T19:40:26.644Z,0.70
2018-06-17T19:42:54.833Z,0.90
2018-06-17T19:45:23.414Z,0.80
2018-06-17T19:47:51.773Z,1.20
2018-06-17T19:50:25.254Z,1.03
2018-06-17T19:52:58.877Z,0.97
2018-06-17T19:55:32.601Z,1.23
2018-06-17T19:58:06.113Z,1.30
2018-06-17T20:00:36.314Z,1.07
2018-06-17T20:03:04.914Z,1.13
2018-06-17T20:05:33.397Z,1.50
2018-06-17T20:08:01.573Z,1.00
2018-06-17T20:10:29.954Z,1.20
2018-06-17T20:12:58.154Z,2.23
2018-06-17T20:15:26.415Z,0.97
2018-06-17T20:17:55.077Z,0.80
2018-06-17T20:22:59.936Z,1.00
2018-06-17T20:25:28.161Z,1.00
2018-06-17T20:27:56.376Z,1.10
2018-06-17T20:30:24.694Z,1.00
2018-06-17T20:32:58.832Z,1.00
2018-06-17T20:35:32.450Z,1.00
2018-06-17T20:38:05.948Z,1.00
2018-06-17T20:40:39.633Z,1.07
2018-06-17T20:43:13.337Z,1.10
2018-06-17T20:45:48.228Z,1.03
2018-06-17T20:48:16.400Z,1.10
2018-06-17T20:50:44.585Z,1.07
2018-06-17T20:53:12.780Z,1.20
2018-06-17T20:55:40.965Z,1.10
2018-06-17T20:58:09.166Z,1.43
2018-06-17T21:00:37.359Z,0.93
2018-06-17T21:03:05.605Z,1.13
2018-06-17T21:05:33.811Z,1.03
2018-06-17T21:08:01.989Z,0.90
2018-06-17T21:10:30.170Z,1.00
2018-06-17T21:12:58.361Z,1.00
2018-06-17T21:15:26.557Z,1.03
2018-06-17T21:17:54.876Z,1.00
2018-06-17T21:20:28.392Z,1.27
2018-06-17T21:23:01.885Z,1.20
2018-06-17T21:25:35.526Z,1.20
2018-06-17T21:28:03.693Z,1.07
2018-06-17T21:30:31.878Z,1.17
2018-06-17T21:33:00.081Z,1.00
2018-06-17T21:35:28.273Z,0.90
2018-06-17T21:37:56.448Z,0.80
2018-06-17T21:40:24.616Z,0.97
2018-06-17T21:42:52.794Z,1.00
2018-06-17T21:45:20.987Z,1.30
2018-06-17T21:47:49.167Z,1.20
2018-06-17T21:50:17.371Z,1.03
2018-06-17T21:52:45.558Z,1.17
2018-06-17T21:55:13.741Z,1.20
2018-06-17T21:57:41.937Z,1.10
2018-06-17T22:00:10.474Z,1.10
2018-06-17T22:02:43.645Z,1.30
2018-06-17T22:05:12.035Z,1.03
2018-06-17T22:07:45.620Z,0.90
2018-06-17T22:10:19.333Z,1.13
2018-06-17T22:12:52.805Z,1.10
2018-06-17T22:15:26.498Z,1.00
2018-06-17T22:17:55.410Z,1.03
2018-06-17T22:20:23.596Z,1.00
2018-06-17T22:22:51.541Z,1.20
2018-06-17T22:25:19.732Z,1.53
2018-06-17T22:27:47.953Z,0.97
2018-06-17T22:30:16.153Z,1.10
2018-06-17T22:32:44.340Z,0.93
2018-06-17T22:35:12.535Z,1.40
2018-06-17T22:37:40.727Z,1.13
2018-06-17T22:40:08.922Z,1.03
2018-06-17T22:42:37.441Z,1.03
2018-06-17T22:45:05.953Z,0.93
2018-06-17T22:47:39.625Z,1.30
2018-06-17T22:50:08.420Z,1.30
2018-06-17T22:52:48.588Z,1.00
2018-06-17T22:55:16.684Z,0.80
2018-06-17T22:57:50.330Z,1.00
2018-06-17T23:00:23.868Z,1.23
2018-06-17T23:02:57.501Z,1.30
2018-06-17T23:05:31.086Z,1.00
2018-06-17T23:08:04.689Z,1.03
2018-06-17T23:10:32.882Z,1.37
2018-06-17T23:13:01.073Z,1.30
2018-06-17T23:15:29.287Z,1.10
2018-06-17T23:17:57.493Z,1.10
2018-06-17T23:20:25.694Z,0.90
2018-06-17T23:22:53.925Z,1.10
2018-06-17T23:25:22.134Z,1.17
2018-06-17T23:27:50.316Z,1.00
2018-06-17T23:30:18.542Z,1.00
2018-06-17T23:32:46.825Z,0.93
2018-06-17T23:35:15.014Z,0.90
2018-06-17T23:37:43.197Z,1.20
2018-06-17T23:40:11.484Z,1.23
2018-06-17T23:42:39.723Z,1.43
2018-06-17T23:45:07.913Z,1.07
2018-06-17T23:47:41.590Z,0.87
2018-06-17T23:50:15.095Z,1.00
2018-06-17T23:52:48.765Z,1.20
2018-06-17T23:55:22.457Z,0.93
2018-06-17T23:57:50.638Z,1.40
